Terminal Aerodrome Forecast
Issued by NWS Wilmington, NC

Home | Current Version | Previous Version | Text Only | Print | Product List | Glossary On
Versions: 1 2 3 4 5 6 7 8 9 10 11 12
142
FTUS42 KILM 212328
TAFILM
TAF
KILM 212328Z 2200/2224 06006KT P6SM BKN100
     FM220300 12005KT P6SM VCSH SCT025 BKN040
     FM220400 21004KT 4SM -SHRA BKN025
     FM220800 22005KT 2SM -DZ BR BKN006
     FM221100 31006KT 4SM BR BKN004
     FM221600 34010KT P6SM SCT010=

USA.gov is the U.S. government's official web portal to all federal, state and local government web resources and services.